Time;durP1;ratioP1;P1;durP2;ratioP2;P2;SDS_P1;SDS_P2;PMS_P1;PMS_P2;Temp;Humidity;BMP_temperature;BMP_pressure;BME280_temperature;BME280_humidity;BME280_pressure;Samples;Min_cycle;Max_cycle;Signal;HPM_P1;HPM_P2
2022/02/06 00:00:11;;;;;;;3.20;3.10;;;;;;;5.73;87.71;100987.13;5967499;23;20035;-69
2022/02/06 00:02:42;;;;;;;3.38;3.28;;;;;;;5.62;87.51;100971.78;6003865;23;20535;-67
2022/02/06 00:05:11;;;;;;;3.88;3.67;;;;;;;5.69;88.68;100993.31;5946260;23;20152;-67
2022/02/06 00:07:38;;;;;;;3.30;3.20;;;;;;;5.44;88.84;100934.09;6005692;23;20530;-67
2022/02/06 00:10:05;;;;;;;4.95;4.75;;;;;;;5.77;88.04;100978.31;5997447;23;20448;-68
2022/02/06 00:12:36;;;;;;;3.23;3.13;;;;;;;5.62;89.21;100957.94;5998816;23;20027;-69
2022/02/06 00:15:03;;;;;;;5.55;5.32;;;;;;;5.71;88.52;100968.06;5973946;23;20332;-68
2022/02/06 00:17:30;;;;;;;3.40;3.30;;;;;;;5.45;89.27;100942.75;6001027;23;20019;-68
2022/02/06 00:19:57;;;;;;;5.40;5.18;;;;;;;5.25;88.81;100904.25;5968947;23;20020;-67
2022/02/06 00:22:32;;;;;;;3.47;3.38;;;;;;;5.04;89.10;100874.47;5999311;23;20019;-68
2022/02/06 00:27:47;;;;;;;3.20;3.10;;;;;;;5.49;87.42;100931.38;6008430;23;20042;-68
2022/02/06 00:32:46;;;;;;;3.30;3.20;;;;;;;5.77;87.65;100950.56;5992127;23;20503;-68
2022/02/06 00:35:28;;;;;;;3.40;3.30;;;;;;;5.56;86.66;100902.53;6005440;23;20033;-67
2022/02/06 00:43:26;;;;;;;3.20;3.10;;;;;;;5.85;86.03;100919.06;5977538;23;20047;-67
2022/02/06 00:45:53;;;;;;;4.18;3.97;;;;;;;5.66;86.13;100903.13;5994044;23;20031;-67
2022/02/06 00:48:24;;;;;;;3.30;3.20;;;;;;;5.86;85.68;100915.56;5982149;23;20028;-69
2022/02/06 00:51:02;;;;;;;4.05;3.90;;;;;;;5.90;85.74;100921.53;5995392;23;20483;-69
2022/02/06 00:53:28;;;;;;;3.20;3.10;;;;;;;5.78;85.48;100907.97;5937359;24;20019;-69
2022/02/06 00:55:55;;;;;;;4.88;4.68;;;;;;;6.00;83.97;100904.78;5992867;23;20031;-69
2022/02/06 00:58:21;;;;;;;3.30;3.20;;;;;;;4.66;84.39;100671.81;5951094;23;20044;-68
2022/02/06 01:00:49;;;;;;;3.45;3.35;;;;;;;5.73;84.43;100856.91;5974489;23;20383;-69
2022/02/06 01:03:16;;;;;;;3.20;3.10;;;;;;;4.55;82.85;100634.84;5966301;23;20031;-68
2022/02/06 01:05:52;;;;;;;4.72;4.53;;;;;;;6.14;83.77;100905.22;5966958;23;20095;-68
2022/02/06 01:08:19;;;;;;;3.40;3.30;;;;;;;6.11;83.51;100886.19;5915489;24;20040;-69
2022/02/06 01:10:46;;;;;;;3.40;3.30;;;;;;;6.19;82.88;100884.22;5970341;23;20024;-68
2022/02/06 01:13:28;;;;;;;3.40;3.30;;;;;;;5.89;83.38;100847.75;5939763;23;20060;-69
2022/02/06 01:16:12;;;;;;;5.13;4.93;;;;;;;5.90;82.93;100819.97;5966951;23;20030;-67
2022/02/06 01:18:44;;;;;;;3.33;3.22;;;;;;;6.33;83.41;100879.41;5943236;24;20457;-67
2022/02/06 01:21:20;;;;;;;4.15;3.95;;;;;;;6.13;83.29;100846.19;5963801;24;20042;-69
2022/02/06 01:29:11;;;;;;;5.07;4.85;;;;;;;6.40;84.38;100851.41;5966619;23;20488;-67
2022/02/06 01:31:52;;;;;;;3.50;3.40;;;;;;;6.35;84.31;100843.75;5993605;23;20019;-68
2022/02/06 01:34:24;;;;;;;3.30;3.20;;;;;;;5.89;83.54;100738.34;5968809;23;20024;-67
2022/02/06 01:37:05;;;;;;;3.40;3.30;;;;;;;6.05;83.79;100783.03;5991215;23;20102;-68
2022/02/06 01:40:27;;;;;;;3.33;3.22;;;;;;;6.21;83.23;100804.22;5992984;23;20090;-67
2022/02/06 01:45:10;;;;;;;;;;;;;;;6.36;83.21;100819.38;5971337;23;20529;-68
2022/02/06 02:10:27;;;;;;;4.85;4.65;;;;;;;6.34;81.70;100743.00;6023376;23;20432;-68
2022/02/06 02:24:08;;;;;;;3.40;3.30;;;;;;;6.38;84.67;100736.78;6027763;23;20007;-68
2022/02/06 02:43:03;;;;;;;3.30;3.20;;;;;;;6.55;82.55;100675.34;6012216;23;20160;-67
2022/02/06 02:48:18;;;;;;;3.30;3.20;;;;;;;6.22;82.88;100613.09;5993011;23;20436;-68
2022/02/06 02:50:52;;;;;;;3.42;3.33;;;;;;;6.85;82.60;100689.03;6029859;23;20019;-68
2022/02/06 03:03:24;;;;;;;3.50;3.40;;;;;;;6.35;82.94;100609.16;5993495;23;20035;-68
2022/02/06 03:05:54;;;;;;;4.65;4.45;;;;;;;6.79;82.67;100663.19;6027117;23;20022;-68
2022/02/06 03:08:22;;;;;;;3.30;3.20;;;;;;;6.74;82.74;100650.31;5986127;23;20055;-68
2022/02/06 03:10:53;;;;;;;3.60;3.50;;;;;;;6.82;83.26;100670.91;6020485;23;20427;-67
2022/02/06 03:13:23;;;;;;;3.37;3.27;;;;;;;6.81;83.93;100642.25;6006039;23;20468;-68
2022/02/06 03:18:21;;;;;;;3.42;3.33;;;;;;;6.81;84.33;100674.41;5998789;23;20031;-67
2022/02/06 03:20:50;;;;;;;3.35;3.25;;;;;;;6.69;85.48;100644.41;6029164;23;20014;-67
2022/02/06 03:23:16;;;;;;;3.50;3.40;;;;;;;6.70;86.54;100653.94;6007836;23;20012;-68
2022/02/06 03:25:50;;;;;;;3.30;3.20;;;;;;;6.63;86.53;100631.59;6028737;23;20089;-68
2022/02/06 03:28:17;;;;;;;3.58;3.47;;;;;;;6.33;86.93;100584.03;5967718;23;20023;-67
2022/02/06 03:30:44;;;;;;;3.35;3.25;;;;;;;6.67;86.74;100640.16;6025144;23;20030;-68
2022/02/06 03:33:11;;;;;;;3.40;3.30;;;;;;;6.44;87.53;100623.63;5992027;23;20342;-68
2022/02/06 03:35:38;;;;;;;3.50;3.40;;;;;;;6.03;89.02;100575.56;6023891;23;20029;-67
2022/02/06 03:38:05;;;;;;;4.95;4.75;;;;;;;6.46;89.31;100628.78;5997356;23;20036;-67
2022/02/06 03:40:39;;;;;;;3.28;3.17;;;;;;;6.52;88.89;100637.22;6023305;23;20082;-68
2022/02/06 03:45:49;;;;;;;3.20;3.10;;;;;;;5.84;89.74;100537.13;6018134;23;20011;-68
2022/02/06 03:50:49;;;;;;;3.40;3.30;;;;;;;6.22;90.70;100584.44;6032088;23;20018;-68
2022/02/06 03:53:20;;;;;;;3.30;3.20;;;;;;;6.38;91.23;100614.25;5998698;23;20043;-68
2022/02/06 03:55:48;;;;;;;3.47;3.38;;;;;;;6.31;91.98;100602.34;5984323;23;20007;-67
2022/02/06 03:58:16;;;;;;;3.40;3.30;;;;;;;5.66;92.61;100503.94;5997604;23;20289;-68
2022/02/06 04:00:42;;;;;;;3.47;3.38;;;;;;;5.99;92.43;100551.38;5999812;23;20440;-68
2022/02/06 04:03:09;;;;;;;4.50;4.30;;;;;;;5.88;91.67;100519.66;5966832;23;20123;-67
2022/02/06 04:05:38;;;;;;;3.47;3.38;;;;;;;6.35;92.71;100601.34;5986070;23;20031;-68
2022/02/06 04:08:07;;;;;;;5.03;4.82;;;;;;;6.32;93.78;100596.25;5971124;23;20354;-66
2022/02/06 04:10:41;;;;;;;3.47;3.38;;;;;;;6.10;94.08;100564.88;5989483;23;20366;-68
2022/02/06 04:13:15;;;;;;;4.18;3.97;;;;;;;6.31;94.66;100588.47;5968596;23;20352;-68
2022/02/06 04:15:48;;;;;;;3.30;3.20;;;;;;;6.32;94.14;100591.03;5984143;23;20223;-68
2022/02/06 04:18:26;;;;;;;3.20;3.10;;;;;;;6.31;94.30;100591.06;6020366;23;20052;-67
2022/02/06 04:20:52;;;;;;;4.32;4.13;;;;;;;6.31;94.10;100568.47;5998934;23;20027;-68
2022/02/06 04:23:19;;;;;;;3.70;3.60;;;;;;;6.33;94.48;100577.06;6032551;23;20050;-67
2022/02/06 04:25:45;;;;;;;3.50;3.40;;;;;;;6.26;94.54;100554.75;5979529;23;20490;-67
2022/02/06 04:28:31;;;;;;;3.30;3.20;;;;;;;6.41;93.83;100562.91;6001301;23;20015;-67
2022/02/06 04:30:59;;;;;;;3.30;3.20;;;;;;;6.39;94.17;100556.03;6014710;23;20018;-67
2022/02/06 04:33:25;;;;;;;3.30;3.20;;;;;;;6.25;93.62;100536.56;6026847;23;20081;-67
2022/02/06 04:35:56;;;;;;;4.10;3.92;;;;;;;6.39;93.14;100552.53;5983385;23;20024;-67
2022/02/06 04:38:37;;;;;;;3.28;3.17;;;;;;;6.39;93.49;100563.84;6028876;23;20074;-67
2022/02/06 04:41:16;;;;;;;4.47;4.28;;;;;;;6.20;94.52;100518.50;5996623;23;20375;-68
2022/02/06 04:44:06;;;;;;;3.30;3.20;;;;;;;6.36;94.83;100556.13;6030904;23;20059;-67
2022/02/06 04:49:49;;;;;;;3.47;3.38;;;;;;;6.42;93.65;100535.97;5996399;23;20232;-67
2022/02/06 05:11:30;;;;;;;5.28;5.07;;;;;;;6.49;94.82;100467.03;6001733;23;20098;-67
2022/02/06 05:14:38;;;;;;;3.50;3.40;;;;;;;6.43;96.37;100490.72;5973605;23;20079;-67
2022/02/06 05:24:46;;;;;;;3.50;3.40;;;;;;;6.46;95.00;100462.78;6018095;23;20037;-68
2022/02/06 05:27:31;;;;;;;3.40;3.30;;;;;;;6.17;95.09;100398.75;6028682;23;20035;-68
2022/02/06 05:30:04;;;;;;;5.55;5.35;;;;;;;6.61;93.83;100456.09;5999013;23;20034;-68
2022/02/06 05:35:00;;;;;;;3.20;3.10;;;;;;;6.23;93.38;100395.06;5996821;23;20023;-67
2022/02/06 05:37:26;;;;;;;3.25;3.15;;;;;;;6.19;93.00;100370.88;6025367;23;20011;-67
2022/02/06 05:39:54;;;;;;;4.57;4.38;;;;;;;6.67;93.22;100453.25;6001754;23;20078;-68
2022/02/06 05:42:20;;;;;;;4.10;3.90;;;;;;;6.65;91.89;100462.91;6031949;23;20015;-67
2022/02/06 05:44:53;;;;;;;3.50;3.40;;;;;;;6.66;93.20;100475.03;6004332;23;20026;-68
2022/02/06 05:47:22;;;;;;;3.38;3.28;;;;;;;6.67;92.69;100450.66;6024032;23;20108;-67
2022/02/06 05:49:49;;;;;;;3.63;3.53;;;;;;;6.49;92.91;100427.91;5999078;23;20030;-67
2022/02/06 05:52:15;;;;;;;3.60;3.50;;;;;;;6.34;92.95;100409.38;6024274;23;20034;-68
2022/02/06 05:54:42;;;;;;;3.22;3.13;;;;;;;6.48;93.16;100424.47;6028807;23;20045;-67
2022/02/06 05:57:08;;;;;;;4.50;4.30;;;;;;;6.42;94.11;100408.25;6019594;23;20039;-67
2022/02/06 05:59:35;;;;;;;3.50;3.40;;;;;;;6.52;93.93;100420.84;6026897;23;20039;-68
2022/02/06 06:02:01;;;;;;;5.05;4.85;;;;;;;6.14;93.91;100347.63;6022732;23;20033;-67
2022/02/06 06:04:28;;;;;;;3.60;3.50;;;;;;;6.57;93.79;100423.25;5996257;23;20034;-67
2022/02/06 06:06:54;;;;;;;5.25;5.05;;;;;;;6.48;94.30;100371.50;6033948;23;20175;-67
2022/02/06 06:09:21;;;;;;;3.60;3.50;;;;;;;6.56;94.31;100391.13;6000313;23;20035;-67
2022/02/06 06:11:47;;;;;;;3.50;3.40;;;;;;;6.59;94.11;100392.75;5998402;23;20019;-67
2022/02/06 06:14:13;;;;;;;3.40;3.30;;;;;;;6.64;94.92;100401.25;5987357;23;20038;-68
2022/02/06 06:16:40;;;;;;;3.63;3.53;;;;;;;6.67;94.12;100382.84;6024903;23;20047;-67
2022/02/06 06:19:06;;;;;;;4.60;4.40;;;;;;;6.23;94.57;100329.91;6022016;23;20026;-67
2022/02/06 06:21:38;;;;;;;3.40;3.30;;;;;;;6.64;95.08;100382.16;6001743;23;20020;-67
2022/02/06 06:24:05;;;;;;;4.80;4.60;;;;;;;6.64;93.86;100377.78;6027396;23;20085;-67
2022/02/06 06:26:39;;;;;;;3.35;3.25;;;;;;;6.57;94.56;100402.38;5991126;23;20292;-67
2022/02/06 06:29:05;;;;;;;4.82;4.63;;;;;;;6.53;94.42;100359.09;6030579;23;20463;-70
2022/02/06 06:31:32;;;;;;;3.45;3.35;;;;;;;6.15;95.10;100323.28;5997276;23;20023;-67
2022/02/06 06:33:58;;;;;;;18.80;17.90;;;;;;;6.58;95.07;100359.78;5956939;23;20376;-68
2022/02/06 06:36:26;;;;;;;3.50;3.40;;;;;;;6.56;95.41;100365.03;5948218;23;20048;-68
2022/02/06 06:38:54;;;;;;;4.75;4.55;;;;;;;6.56;95.15;100365.03;6016075;23;20033;-68
2022/02/06 06:41:39;;;;;;;3.38;3.28;;;;;;;6.58;95.83;100365.84;6027101;23;20678;-69
2022/02/06 06:44:06;;;;;;;4.57;4.38;;;;;;;6.55;95.72;100370.31;6026083;23;20101;-69
2022/02/06 06:46:32;;;;;;;3.58;3.47;;;;;;;6.47;95.67;100341.94;5996725;23;20090;-70
2022/02/06 06:48:59;;;;;;;5.10;4.90;;;;;;;6.60;95.11;100331.88;6031400;23;20019;-67
2022/02/06 06:51:25;;;;;;;3.25;3.15;;;;;;;6.64;94.38;100340.44;5998978;23;20023;-68
2022/02/06 06:53:52;;;;;;;4.43;4.25;;;;;;;6.68;94.01;100355.03;6005500;23;20024;-67
2022/02/06 06:56:29;;;;;;;3.55;3.45;;;;;;;6.70;93.13;100356.66;5973963;23;20035;-68
2022/02/06 06:58:55;;;;;;;4.95;4.75;;;;;;;6.65;93.09;100337.72;6010166;23;20033;-68
2022/02/06 07:01:44;;;;;;;3.45;3.35;;;;;;;6.27;93.64;100279.38;5975471;23;20102;-67
2022/02/06 07:04:10;;;;;;;3.70;3.60;;;;;;;6.65;94.40;100349.94;5975742;23;20035;-67
2022/02/06 07:06:54;;;;;;;4.80;4.60;;;;;;;6.67;94.18;100340.28;5975691;23;20585;-69
2022/02/06 07:09:21;;;;;;;3.40;3.30;;;;;;;6.52;93.00;100318.31;6000038;23;20030;-71
2022/02/06 07:11:47;;;;;;;3.58;3.47;;;;;;;6.66;93.18;100338.59;5997542;23;20020;-71
2022/02/06 07:14:14;;;;;;;3.35;3.25;;;;;;;6.39;93.51;100308.41;6001708;23;20036;-70
2022/02/06 07:16:40;;;;;;;3.35;3.25;;;;;;;6.72;93.56;100339.19;5975952;23;20104;-70
2022/02/06 07:19:06;;;;;;;4.45;4.25;;;;;;;6.76;93.09;100337.31;5975062;23;20047;-70
2022/02/06 07:21:38;;;;;;;3.42;3.33;;;;;;;6.75;93.28;100323.41;5968291;23;20022;-71
2022/02/06 07:24:05;;;;;;;4.90;4.70;;;;;;;6.31;93.61;100284.38;5986823;23;20033;-70
2022/02/06 07:26:32;;;;;;;3.38;3.28;;;;;;;6.69;93.78;100339.31;5967995;23;20095;-70
2022/02/06 07:29:01;;;;;;;5.22;5.03;;;;;;;6.25;94.51;100242.94;5998909;23;20015;-68
2022/02/06 07:31:28;;;;;;;3.25;3.15;;;;;;;6.69;94.75;100343.69;5975343;23;20012;-70
2022/02/06 07:33:54;;;;;;;4.75;4.55;;;;;;;6.34;94.83;100262.59;5969569;23;20035;-69
2022/02/06 07:36:21;;;;;;;3.33;3.22;;;;;;;6.64;94.83;100299.56;6000290;23;20039;-69
2022/02/06 07:38:47;;;;;;;3.33;3.22;;;;;;;6.07;93.36;100189.84;5969500;23;20032;-68
2022/02/06 07:41:14;;;;;;;3.40;3.30;;;;;;;6.62;94.44;100287.50;5994646;23;20406;-69
2022/02/06 07:43:40;;;;;;;3.30;3.20;;;;;;;6.74;94.42;100286.97;5995094;23;20308;-69
2022/02/06 07:46:10;;;;;;;4.50;4.30;;;;;;;6.69;93.50;100294.13;5991577;23;20011;-69
2022/02/06 07:48:37;;;;;;;3.60;3.50;;;;;;;6.46;94.09;100251.63;5950229;24;20638;-69
2022/02/06 07:51:03;;;;;;;5.22;5.03;;;;;;;6.66;94.46;100278.63;5976974;23;20023;-68
2022/02/06 07:53:30;;;;;;;3.45;3.35;;;;;;;6.63;93.41;100297.84;5982897;23;20404;-69
2022/02/06 07:55:57;;;;;;;5.05;4.85;;;;;;;6.15;94.24;100179.97;6020151;23;20026;-69
2022/02/06 07:58:23;;;;;;;3.30;3.20;;;;;;;5.78;94.20;100144.16;5995043;23;20107;-69
2022/02/06 08:00:49;;;;;;;3.88;3.72;;;;;;;6.56;94.16;100239.06;6029258;23;20006;-69
2022/02/06 08:03:16;;;;;;;3.53;3.35;;;;;;;6.61;93.99;100236.25;5994151;23;20716;-69
2022/02/06 08:05:42;;;;;;;3.50;3.40;;;;;;;6.70;93.35;100254.97;6028484;23;20019;-69
2022/02/06 08:08:14;;;;;;;3.65;3.55;;;;;;;6.62;93.94;100230.97;5984788;23;20359;-69
2022/02/06 08:10:41;;;;;;;3.78;3.67;;;;;;;6.37;93.67;100182.53;6023164;23;20046;-68
2022/02/06 08:13:11;;;;;;;4.10;3.90;;;;;;;6.72;93.51;100182.72;6017518;23;20026;-69
2022/02/06 08:15:38;;;;;;;3.78;3.67;;;;;;;6.16;93.60;100123.50;6015815;23;20101;-69
2022/02/06 08:18:06;;;;;;;5.28;5.07;;;;;;;6.74;93.62;100216.56;6021715;23;20269;-69
2022/02/06 08:20:32;;;;;;;3.60;3.50;;;;;;;6.76;93.76;100196.47;5996195;23;20456;-70
2022/02/06 08:22:59;;;;;;;5.45;5.25;;;;;;;6.58;93.20;100169.47;5963557;23;20102;-70
2022/02/06 08:25:25;;;;;;;3.45;3.35;;;;;;;6.79;93.05;100193.72;5988823;23;20027;-70
2022/02/06 08:27:52;;;;;;;5.00;4.80;;;;;;;6.83;92.52;100184.84;5988391;23;20019;-70
2022/02/06 08:30:18;;;;;;;3.70;3.60;;;;;;;6.38;92.66;100105.16;5981465;23;20031;-69
2022/02/06 08:32:44;;;;;;;3.78;3.67;;;;;;;6.86;92.97;100178.66;6010872;23;20102;-69
2022/02/06 08:35:11;;;;;;;3.60;3.50;;;;;;;6.29;91.81;100072.53;5989323;23;20023;-69
2022/02/06 08:37:40;;;;;;;3.88;3.78;;;;;;;6.50;92.47;100083.75;6023401;23;20033;-68
2022/02/06 08:40:12;;;;;;;4.43;4.22;;;;;;;6.90;92.38;100169.78;5982037;23;20389;-69
2022/02/06 08:42:41;;;;;;;4.10;3.90;;;;;;;6.56;92.38;100119.16;5971569;23;20052;-69
2022/02/06 08:45:11;;;;;;;4.75;4.55;;;;;;;6.89;91.68;100144.59;5945679;23;20051;-69
2022/02/06 08:47:38;;;;;;;3.60;3.50;;;;;;;6.93;92.29;100133.09;6017610;23;20475;-70
2022/02/06 08:50:05;;;;;;;5.25;5.05;;;;;;;7.02;91.41;100143.13;6022650;23;20033;-70
2022/02/06 08:52:32;;;;;;;3.53;3.42;;;;;;;6.99;92.54;100144.09;5993305;23;20018;-70
2022/02/06 08:55:00;;;;;;;5.28;5.07;;;;;;;7.09;92.13;100125.41;6021330;23;20030;-70
2022/02/06 08:57:27;;;;;;;3.60;3.50;;;;;;;7.07;91.91;100129.84;5996429;23;20428;-70
2022/02/06 08:59:55;;;;;;;5.03;4.82;;;;;;;7.07;91.06;100132.47;6005111;23;20019;-69
2022/02/06 09:02:22;;;;;;;4.20;4.00;;;;;;;7.12;91.18;100125.28;5973162;23;20043;-68
2022/02/06 09:04:48;;;;;;;4.03;3.90;;;;;;;7.00;91.54;100100.59;5999206;23;20013;-69
2022/02/06 09:07:17;;;;;;;3.60;3.50;;;;;;;6.98;92.24;100100.69;5993141;23;20269;-69
2022/02/06 09:09:48;;;;;;;3.90;3.70;;;;;;;7.14;90.84;100129.50;5987329;23;20027;-69
2022/02/06 09:12:17;;;;;;;4.00;3.80;;;;;;;7.13;91.42;100119.13;5969687;23;20015;-69
2022/02/06 09:14:46;;;;;;;4.10;3.90;;;;;;;6.87;91.95;100081.22;6003094;23;20097;-72
2022/02/06 09:17:12;;;;;;;3.78;3.67;;;;;;;6.90;92.44;100061.06;5938046;23;20028;-69
2022/02/06 09:19:39;;;;;;;3.50;3.40;;;;;;;6.41;92.98;100011.19;5983806;23;20054;-69
2022/02/06 09:22:08;;;;;;;4.65;4.45;;;;;;;6.68;93.53;100042.13;5988154;23;20679;-71
2022/02/06 09:24:38;;;;;;;3.60;3.50;;;;;;;7.01;94.35;100094.47;5989435;23;20056;-69
2022/02/06 09:27:06;;;;;;;5.43;5.22;;;;;;;7.01;95.00;100104.06;5992692;23;20556;-67
2022/02/06 09:29:34;;;;;;;5.53;5.22;;;;;;;6.95;95.03;100086.91;5971570;23;20078;-68
2022/02/06 09:37:15;;;;;;;3.67;3.58;;;;;;;6.95;94.96;100068.66;5992690;23;20019;-70
2022/02/06 09:39:42;;;;;;;3.70;3.60;;;;;;;6.93;95.32;100049.63;5950803;23;20019;-70
2022/02/06 09:42:09;;;;;;;3.60;3.50;;;;;;;6.96;95.23;100054.72;5997670;23;20050;-71
2022/02/06 09:44:36;;;;;;;4.00;3.80;;;;;;;6.91;95.13;100046.25;5997519;23;20499;-69
2022/02/06 09:47:04;;;;;;;5.15;4.95;;;;;;;6.96;95.85;100039.91;5994253;23;20453;-69
2022/02/06 09:49:32;;;;;;;3.55;3.45;;;;;;;6.46;95.62;99966.69;5969218;23;20019;-69
2022/02/06 09:51:58;;;;;;;5.60;5.40;;;;;;;6.87;95.41;100010.81;6005708;23;20111;-71
2022/02/06 09:54:25;;;;;;;3.60;3.50;;;;;;;6.91;95.80;100014.94;5969176;23;20094;-71
2022/02/06 09:56:55;;;;;;;5.13;4.93;;;;;;;6.25;96.08;99914.63;5997610;23;20114;-69
2022/02/06 09:59:23;;;;;;;3.50;3.40;;;;;;;6.20;95.60;99903.59;6001833;23;20425;-72
2022/02/06 10:01:55;;;;;;;3.83;3.70;;;;;;;6.50;95.71;99934.34;6001047;23;20186;-69
2022/02/06 10:04:23;;;;;;;;;;;;;;;6.97;95.04;100009.44;6000637;23;20034;-69
2022/02/06 10:06:59;;;;;;;4.05;3.90;;;;;;;6.91;94.63;100014.94;5994964;23;20021;-69
2022/02/06 10:09:33;;;;;;;3.60;3.50;;;;;;;6.80;95.16;99986.78;5969217;23;20032;-68
2022/02/06 10:12:01;;;;;;;5.38;5.18;;;;;;;6.63;94.70;99922.41;5997494;23;20025;-69
2022/02/06 10:14:29;;;;;;;3.38;3.28;;;;;;;6.93;94.91;100005.28;5980065;23;20552;-69
2022/02/06 10:16:56;;;;;;;5.53;5.32;;;;;;;6.90;95.78;99981.97;6023470;23;20217;-68
2022/02/06 10:19:22;;;;;;;3.50;3.40;;;;;;;6.69;95.74;99949.94;6007886;23;20338;-69
2022/02/06 10:21:49;;;;;;;4.10;3.95;;;;;;;6.44;95.66;99885.13;6025214;23;20014;-71
2022/02/06 10:24:34;;;;;;;3.40;3.30;;;;;;;6.93;95.65;99960.94;5998859;23;20215;-71
2022/02/06 10:27:22;;;;;;;5.28;5.07;;;;;;;6.87;95.76;99951.66;6023330;23;20018;-70
2022/02/06 10:29:58;;;;;;;3.70;3.58;;;;;;;6.75;96.33;99928.78;6016872;23;20026;-70
2022/02/06 10:32:25;;;;;;;3.40;3.30;;;;;;;6.81;96.34;99935.47;5972604;23;20184;-70
2022/02/06 10:35:08;;;;;;;5.03;4.82;;;;;;;6.39;97.44;99873.16;5992941;23;20042;-70
2022/02/06 10:37:34;;;;;;;3.70;3.60;;;;;;;6.75;97.47;99923.56;5973764;23;20024;-70
2022/02/06 10:40:06;;;;;;;4.97;4.78;;;;;;;6.74;98.87;99924.50;5978107;23;20037;-68
2022/02/06 10:42:41;;;;;;;3.67;3.58;;;;;;;6.72;98.25;99902.88;6000723;23;20031;-70
2022/02/06 10:45:26;;;;;;;3.53;3.42;;;;;;;6.69;98.52;99874.31;6026489;23;20022;-68
2022/02/06 10:47:55;;;;;;;4.65;4.45;;;;;;;6.79;98.13;99894.69;5993928;23;20037;-71
2022/02/06 10:50:27;;;;;;;3.83;3.53;;;;;;;6.81;97.80;99878.09;6005622;23;20017;-70
2022/02/06 10:53:11;;;;;;;4.72;4.53;;;;;;;6.75;98.66;99871.41;5970148;23;20031;-71
2022/02/06 10:55:52;;;;;;;3.70;3.60;;;;;;;6.64;97.72;99832.84;5989375;23;20025;-70
2022/02/06 10:58:25;;;;;;;3.40;3.30;;;;;;;6.77;97.95;99851.31;5968191;23;20103;-70
2022/02/06 11:00:52;;;;;;;;;;;;;;;6.76;97.92;99824.41;5999205;23;20020;-70
2022/02/06 11:03:28;;;;;;;3.40;3.30;;;;;;;6.55;98.65;99782.00;5996811;23;20144;-71
2022/02/06 11:06:06;;;;;;;5.22;5.03;;;;;;;6.48;98.54;99770.19;5990079;23;20038;-70
2022/02/06 11:08:34;;;;;;;3.58;3.47;;;;;;;6.75;98.97;99811.44;6000508;23;20042;-69
2022/02/06 11:11:07;;;;;;;5.22;5.03;;;;;;;6.76;98.36;99805.31;5994522;23;20537;-70
2022/02/06 11:13:35;;;;;;;3.40;3.30;;;;;;;6.36;97.18;99708.28;5997923;23;20046;-70
2022/02/06 11:16:13;;;;;;;5.15;4.95;;;;;;;6.54;97.98;99754.25;5994191;23;20021;-69
2022/02/06 11:18:54;;;;;;;4.15;3.95;;;;;;;6.79;98.31;99773.84;5983929;23;20031;-69
2022/02/06 11:21:22;;;;;;;4.53;4.22;;;;;;;6.48;97.68;99715.47;5991123;23;20365;-69
2022/02/06 11:23:50;;;;;;;3.53;3.40;;;;;;;6.74;98.22;99742.81;5991359;23;20519;-69
2022/02/06 11:26:25;;;;;;;3.50;3.40;;;;;;;6.25;98.37;99641.06;5996117;23;20034;-70
2022/02/06 11:28:53;;;;;;;4.47;4.28;;;;;;;6.71;97.68;99727.31;6013460;23;20500;-70
2022/02/06 11:31:21;;;;;;;3.50;3.40;;;;;;;6.71;97.88;99731.69;5968292;23;20505;-69
2022/02/06 11:33:48;;;;;;;3.83;3.65;;;;;;;6.53;97.47;99689.16;5998337;23;20069;-69
2022/02/06 11:36:23;;;;;;;3.30;3.20;;;;;;;6.42;97.57;99655.00;5965544;23;20457;-70
2022/02/06 11:45:07;;;;;;;4.03;3.83;;;;;;;6.45;97.04;99616.56;6019821;23;20568;-70
2022/02/06 11:47:52;;;;;;;3.70;3.60;;;;;;;6.60;97.49;99643.63;5996262;23;20475;-69
2022/02/06 11:50:19;;;;;;;3.50;3.40;;;;;;;6.76;96.68;99643.66;6029123;23;20090;-69
2022/02/06 11:52:54;;;;;;;3.50;3.40;;;;;;;6.66;97.12;99614.63;5983340;23;20062;-70
2022/02/06 11:55:37;;;;;;;3.67;3.58;;;;;;;6.66;97.61;99606.78;5998364;23;20031;-68
2022/02/06 11:58:35;;;;;;;5.25;5.05;;;;;;;5.67;96.97;99428.75;5984222;23;20027;-69
2022/02/06 12:01:07;;;;;;;4.90;4.70;;;;;;;6.86;98.34;99599.66;5958594;23;20035;-68
2022/02/06 12:03:53;;;;;;;3.50;3.40;;;;;;;6.86;98.46;99586.63;5967499;23;20322;-68
2022/02/06 12:06:24;;;;;;;3.70;3.60;;;;;;;6.91;97.59;99568.94;5967092;23;20066;-68
2022/02/06 12:08:59;;;;;;;3.50;3.40;;;;;;;6.95;96.67;99567.84;5994943;23;20639;-68
2022/02/06 12:11:33;;;;;;;3.70;3.60;;;;;;;6.42;97.43;99489.06;5960915;23;20331;-68
2022/02/06 12:14:10;;;;;;;5.57;5.38;;;;;;;6.48;98.50;99475.69;5985907;23;20027;-68
2022/02/06 12:16:43;;;;;;;3.70;3.60;;;;;;;6.79;99.32;99520.91;5972688;23;20031;-68
2022/02/06 12:19:30;;;;;;;3.50;3.40;;;;;;;6.56;98.29;99444.00;5987382;23;20477;-68
2022/02/06 12:21:59;;;;;;;5.55;5.35;;;;;;;6.75;97.69;99439.41;5974649;23;20036;-68
2022/02/06 12:24:36;;;;;;;3.50;3.40;;;;;;;6.69;96.86;99431.09;5997712;23;20706;-69
2022/02/06 12:27:23;;;;;;;5.35;5.15;;;;;;;6.79;97.53;99463.53;5975804;23;20037;-70
2022/02/06 12:29:56;;;;;;;4.47;4.28;;;;;;;6.76;96.67;99425.47;5961224;23;20031;-68
2022/02/06 12:32:35;;;;;;;3.70;3.60;;;;;;;6.22;97.85;99328.63;5995278;23;20043;-71
2022/02/06 12:37:52;;;;;;;4.72;4.55;;;;;;;7.19;98.43;99436.00;5996110;23;20083;-67
2022/02/06 12:40:21;;;;;;;3.75;3.65;;;;;;;7.48;96.96;99469.19;5992814;23;20015;-69
2022/02/06 12:42:58;;;;;;;3.80;3.70;;;;;;;6.44;97.61;99275.28;5992389;23;20026;-69
2022/02/06 12:45:27;;;;;;;3.67;3.58;;;;;;;7.68;97.81;99457.56;5966572;23;20012;-69
2022/02/06 12:47:58;;;;;;;5.55;5.35;;;;;;;7.68;97.05;99444.50;5990005;23;20023;-68
2022/02/06 12:50:31;;;;;;;3.70;3.60;;;;;;;7.81;97.30;99461.09;5973424;23;20512;-69
2022/02/06 12:52:58;;;;;;;5.57;5.38;;;;;;;7.50;97.35;99429.00;6017386;23;20030;-69
2022/02/06 12:55:30;;;;;;;3.80;3.70;;;;;;;7.83;99.57;99487.13;6009955;23;20070;-69
2022/02/06 12:57:58;;;;;;;5.45;5.25;;;;;;;7.36;99.75;99415.94;6017058;23;20034;-70
2022/02/06 13:00:29;;;;;;;3.70;3.60;;;;;;;7.48;100.00;99430.03;6011558;23;20019;-70
2022/02/06 13:03:37;;;;;;;5.55;5.35;;;;;;;7.90;100.00;99493.66;6018396;23;20399;-69
2022/02/06 13:06:09;;;;;;;5.55;5.35;;;;;;;7.44;100.00;99421.53;6003896;23;20027;-68
2022/02/06 13:08:39;;;;;;;3.70;3.60;;;;;;;7.81;100.00;99447.19;6024424;23;20014;-69
2022/02/06 13:11:11;;;;;;;5.47;5.28;;;;;;;7.75;100.00;99427.50;5997536;23;20814;-69
2022/02/06 13:14:00;;;;;;;3.72;3.63;;;;;;;8.18;100.00;99500.66;6019574;23;20086;-68
2022/02/06 13:30:47;;;;;;;4.05;3.85;;;;;;;7.19;95.97;99626.47;6020231;23;20048;-69
2022/02/06 13:35:29;;;;;;;5.32;5.13;;;;;;;6.51;91.86;99709.25;6027808;23;20081;-69
2022/02/06 13:38:01;;;;;;;5.10;4.90;;;;;;;6.26;92.68;99699.25;6012595;23;20049;-69
2022/02/06 13:40:32;;;;;;;3.42;3.33;;;;;;;6.09;93.91;99711.31;6039342;23;20011;-70
2022/02/06 13:43:14;;;;;;;5.45;5.25;;;;;;;5.99;93.70;99679.72;6017394;23;20037;-69
2022/02/06 13:45:42;;;;;;;3.67;3.58;;;;;;;6.04;93.31;99694.25;6020138;23;20209;-69
2022/02/06 13:48:10;;;;;;;4.22;4.03;;;;;;;5.92;91.62;99686.09;5992714;23;20187;-70
2022/02/06 13:50:43;;;;;;;3.67;3.58;;;;;;;5.54;91.09;99615.09;6008372;23;20487;-69
2022/02/06 13:53:13;;;;;;;3.38;3.28;;;;;;;5.98;87.69;99713.63;5991782;23;20015;-68
2022/02/06 13:55:48;;;;;;;3.72;3.63;;;;;;;5.91;87.90;99671.41;6004607;23;20062;-70
2022/02/06 13:58:16;;;;;;;3.60;3.50;;;;;;;6.03;89.51;99687.34;5966375;23;20058;-71
2022/02/06 14:00:57;;;;;;;3.47;3.38;;;;;;;5.97;88.49;99676.34;5963770;23;20027;-70
2022/02/06 14:03:43;;;;;;;3.60;3.50;;;;;;;5.99;89.00;99681.44;5991395;23;20059;-70
2022/02/06 14:06:35;;;;;;;3.80;3.70;;;;;;;5.42;90.10;99587.06;5963051;23;20016;-69
2022/02/06 14:09:25;;;;;;;3.42;3.33;;;;;;;5.07;89.77;99530.66;5967878;23;20056;-70
2022/02/06 14:12:22;;;;;;;3.70;3.60;;;;;;;5.74;89.40;99642.75;6014763;23;20073;-69
2022/02/06 14:14:52;;;;;;;3.60;3.50;;;;;;;6.08;89.75;99696.63;6000103;23;20097;-69
2022/02/06 14:17:42;;;;;;;3.70;3.60;;;;;;;6.10;91.47;99699.16;5961887;23;20266;-70
2022/02/06 14:20:17;;;;;;;4.22;4.03;;;;;;;6.09;92.18;99705.28;5998617;23;20414;-70
2022/02/06 14:22:45;;;;;;;3.75;3.65;;;;;;;5.67;91.32;99630.94;6020980;23;20038;-70
2022/02/06 14:25:22;;;;;;;5.75;5.53;;;;;;;6.13;92.35;99693.78;5988562;23;20610;-71
2022/02/06 14:27:48;;;;;;;3.65;3.55;;;;;;;6.17;92.51;99684.91;6020396;23;20019;-69